sensor_id;sensor_type;location;lat;lon;timestamp;pressure;altitude;pressure_sealevel;temperature;humidity
11017;BME280;54687;50.800;6.772;2022-09-23T00:00:47;61080.34;;;-144.06;57.98
11017;BME280;54687;50.800;6.772;2022-09-23T00:03:15;61067.75;;;-144.06;57.68
11017;BME280;54687;50.800;6.772;2022-09-23T00:05:41;61076.13;;;-144.06;57.49
11017;BME280;54687;50.800;6.772;2022-09-23T00:08:10;61046.78;;;-144.06;57.56
11017;BME280;54687;50.800;6.772;2022-09-23T00:10:38;61057.28;;;-144.06;58.13
11017;BME280;54687;50.800;6.772;2022-09-23T00:13:05;61067.75;;;-144.06;58.01
11017;BME280;54687;50.800;6.772;2022-09-23T00:15:37;61071.94;;;-144.06;58.08
11017;BME280;54687;50.800;6.772;2022-09-23T00:18:04;61082.44;;;-144.06;58.30
11017;BME280;54687;50.800;6.772;2022-09-23T00:20:34;61034.22;;;-144.06;57.98
11017;BME280;54687;50.800;6.772;2022-09-23T00:23:01;61038.41;;;-144.06;58.27
11017;BME280;54687;50.800;6.772;2022-09-23T00:25:27;61051.00;;;-144.06;58.32
11017;BME280;54687;50.800;6.772;2022-09-23T00:27:55;61080.34;;;-144.06;58.21
11017;BME280;54687;50.800;6.772;2022-09-23T00:30:23;61025.84;;;-144.06;58.32
11017;BME280;54687;50.800;6.772;2022-09-23T00:32:50;61059.38;;;-144.06;58.04
11017;BME280;54687;50.800;6.772;2022-09-23T00:35:17;61009.06;;;-144.06;58.11
11017;BME280;54687;50.800;6.772;2022-09-23T00:37:45;61063.56;;;-144.06;58.08
11017;BME280;54687;50.800;6.772;2022-09-23T00:40:11;61042.59;;;-144.06;58.34
11017;BME280;54687;50.800;6.772;2022-09-23T00:42:44;61046.78;;;-144.06;58.21
11017;BME280;54687;50.800;6.772;2022-09-23T00:45:11;61040.50;;;-144.06;58.32
11017;BME280;54687;50.800;6.772;2022-09-23T00:47:43;61034.22;;;-144.06;58.39
11017;BME280;54687;50.800;6.772;2022-09-23T00:50:15;61051.00;;;-144.06;58.32
11017;BME280;54687;50.800;6.772;2022-09-23T00:52:45;61038.41;;;-144.06;58.46
11017;BME280;54687;50.800;6.772;2022-09-23T00:55:16;61034.22;;;-144.06;58.42
11017;BME280;54687;50.800;6.772;2022-09-23T00:57:44;61063.56;;;-144.06;58.52
11017;BME280;54687;50.800;6.772;2022-09-23T01:00:12;61042.59;;;-144.06;58.48
11017;BME280;54687;50.800;6.772;2022-09-23T01:02:39;61030.03;;;-144.06;58.36
11017;BME280;54687;50.800;6.772;2022-09-23T01:05:07;61071.94;;;-144.06;58.55
11017;BME280;54687;50.800;6.772;2022-09-23T01:07:33;61071.94;;;-144.06;58.79
11017;BME280;54687;50.800;6.772;2022-09-23T01:10:01;61076.13;;;-144.06;58.59
11017;BME280;54687;50.800;6.772;2022-09-23T01:12:43;61063.56;;;-144.06;58.72
11017;BME280;54687;50.800;6.772;2022-09-23T01:15:20;60986.00;;;-144.06;58.93
11017;BME280;54687;50.800;6.772;2022-09-23T01:17:55;61053.09;;;-144.06;58.82
11017;BME280;54687;50.800;6.772;2022-09-23T01:20:45;61082.44;;;-144.06;59.11
11017;BME280;54687;50.800;6.772;2022-09-23T01:26:27;61061.47;;;-144.06;59.40
11017;BME280;54687;50.800;6.772;2022-09-23T01:29:13;61030.03;;;-144.06;59.79
11017;BME280;54687;50.800;6.772;2022-09-23T01:31:47;61065.66;;;-144.06;59.93
11017;BME280;54687;50.800;6.772;2022-09-23T01:34:21;61088.72;;;-144.06;59.70
11017;BME280;54687;50.800;6.772;2022-09-23T01:36:55;61055.19;;;-144.06;59.70
11017;BME280;54687;50.800;6.772;2022-09-23T01:39:32;61059.38;;;-144.06;60.00
11017;BME280;54687;50.800;6.772;2022-09-23T01:42:04;61051.00;;;-144.06;60.06
11017;BME280;54687;50.800;6.772;2022-09-23T01:44:36;61076.13;;;-144.06;60.13
11017;BME280;54687;50.800;6.772;2022-09-23T01:47:11;61038.41;;;-144.06;60.05
11017;BME280;54687;50.800;6.772;2022-09-23T01:49:44;61042.59;;;-144.06;60.13
11017;BME280;54687;50.800;6.772;2022-09-23T01:52:16;61059.38;;;-144.06;60.21
11017;BME280;54687;50.800;6.772;2022-09-23T01:54:47;61051.00;;;-144.06;60.18
11017;BME280;54687;50.800;6.772;2022-09-23T01:57:20;61034.22;;;-144.06;60.19
11017;BME280;54687;50.800;6.772;2022-09-23T01:59:51;61059.38;;;-144.06;60.47
11017;BME280;54687;50.800;6.772;2022-09-23T02:02:27;61063.56;;;-144.06;60.50
11017;BME280;54687;50.800;6.772;2022-09-23T02:04:59;61055.19;;;-144.06;60.72
11017;BME280;54687;50.800;6.772;2022-09-23T02:07:30;61046.78;;;-144.06;60.58
11017;BME280;54687;50.800;6.772;2022-09-23T02:10:05;61067.75;;;-144.06;60.54
11017;BME280;54687;50.800;6.772;2022-09-23T02:12:34;61030.03;;;-144.06;60.67
11017;BME280;54687;50.800;6.772;2022-09-23T02:15:08;61063.56;;;-144.06;60.53
11017;BME280;54687;50.800;6.772;2022-09-23T02:17:40;61019.53;;;-144.06;60.70
11017;BME280;54687;50.800;6.772;2022-09-23T02:20:12;61021.63;;;-144.06;60.43
11017;BME280;54687;50.800;6.772;2022-09-23T02:22:50;61059.38;;;-144.06;60.57
11017;BME280;54687;50.800;6.772;2022-09-23T02:25:19;61080.34;;;-144.06;60.79
11017;BME280;54687;50.800;6.772;2022-09-23T02:27:54;61071.94;;;-144.06;60.67
11017;BME280;54687;50.800;6.772;2022-09-23T02:30:24;61071.94;;;-144.06;60.82
11017;BME280;54687;50.800;6.772;2022-09-23T02:32:59;61038.41;;;-144.06;60.85
11017;BME280;54687;50.800;6.772;2022-09-23T02:35:32;61042.59;;;-144.06;60.90
11017;BME280;54687;50.800;6.772;2022-09-23T02:38:12;61097.09;;;-144.06;60.83
11017;BME280;54687;50.800;6.772;2022-09-23T02:40:50;61059.38;;;-144.06;60.78
11017;BME280;54687;50.800;6.772;2022-09-23T02:43:21;61053.09;;;-144.06;60.80
11017;BME280;54687;50.800;6.772;2022-09-23T02:45:52;61027.94;;;-144.06;60.92
11017;BME280;54687;50.800;6.772;2022-09-23T02:48:24;61053.09;;;-144.06;61.13
11017;BME280;54687;50.800;6.772;2022-09-23T02:50:52;61071.94;;;-144.06;61.01
11017;BME280;54687;50.800;6.772;2022-09-23T02:53:21;61042.59;;;-144.06;60.94
11017;BME280;54687;50.800;6.772;2022-09-23T02:55:48;61063.56;;;-144.06;61.16
11017;BME280;54687;50.800;6.772;2022-09-23T02:58:16;61059.38;;;-144.06;61.25
11017;BME280;54687;50.800;6.772;2022-09-23T03:00:50;61074.03;;;-144.06;61.17
11017;BME280;54687;50.800;6.772;2022-09-23T03:03:35;61084.53;;;-144.06;61.14
11017;BME280;54687;50.800;6.772;2022-09-23T03:06:12;61034.22;;;-144.06;61.14
11017;BME280;54687;50.800;6.772;2022-09-23T03:08:46;61059.38;;;-144.06;61.29
11017;BME280;54687;50.800;6.772;2022-09-23T03:11:18;61051.00;;;-144.06;61.36
11017;BME280;54687;50.800;6.772;2022-09-23T03:13:52;61046.78;;;-144.06;61.52
11017;BME280;54687;50.800;6.772;2022-09-23T03:16:29;61027.94;;;-144.06;61.93
11017;BME280;54687;50.800;6.772;2022-09-23T03:19:09;61063.56;;;-144.06;61.79
11017;BME280;54687;50.800;6.772;2022-09-23T03:21:46;61017.44;;;-144.06;61.99
11017;BME280;54687;50.800;6.772;2022-09-23T03:24:14;61055.19;;;-144.06;61.78
11017;BME280;54687;50.800;6.772;2022-09-23T03:26:45;61051.00;;;-144.06;62.10
11017;BME280;54687;50.800;6.772;2022-09-23T03:29:13;61076.13;;;-144.06;62.14
11017;BME280;54687;50.800;6.772;2022-09-23T03:31:41;61069.84;;;-144.06;62.10
11017;BME280;54687;50.800;6.772;2022-09-23T03:34:14;61055.19;;;-144.06;61.85
11017;BME280;54687;50.800;6.772;2022-09-23T03:36:47;61053.09;;;-144.06;62.04
11017;BME280;54687;50.800;6.772;2022-09-23T03:39:33;61046.78;;;-144.06;61.99
11017;BME280;54687;50.800;6.772;2022-09-23T03:42:04;61063.56;;;-144.06;62.06
11017;BME280;54687;50.800;6.772;2022-09-23T03:44:41;61076.13;;;-144.06;61.97
11017;BME280;54687;50.800;6.772;2022-09-23T03:47:10;61097.09;;;-144.06;62.24
11017;BME280;54687;50.800;6.772;2022-09-23T03:49:41;61099.19;;;-144.06;62.13
11017;BME280;54687;50.800;6.772;2022-09-23T03:52:09;61059.38;;;-144.06;62.22
11017;BME280;54687;50.800;6.772;2022-09-23T03:54:36;61109.69;;;-144.06;62.11
11017;BME280;54687;50.800;6.772;2022-09-23T03:57:03;61055.19;;;-144.06;62.21
11017;BME280;54687;50.800;6.772;2022-09-23T03:59:30;61046.78;;;-144.06;62.27
11017;BME280;54687;50.800;6.772;2022-09-23T04:01:57;61059.38;;;-144.06;62.34
11017;BME280;54687;50.800;6.772;2022-09-23T04:04:25;61067.75;;;-144.06;62.21
11017;BME280;54687;50.800;6.772;2022-09-23T04:06:53;61084.53;;;-144.06;62.29
11017;BME280;54687;50.800;6.772;2022-09-23T04:09:20;61084.53;;;-144.06;62.44
11017;BME280;54687;50.800;6.772;2022-09-23T04:11:47;61088.72;;;-144.06;62.19
11017;BME280;54687;50.800;6.772;2022-09-23T04:14:14;61059.38;;;-144.06;62.66
11017;BME280;54687;50.800;6.772;2022-09-23T04:16:40;61063.56;;;-144.06;62.54
11017;BME280;54687;50.800;6.772;2022-09-23T04:19:08;61076.13;;;-144.06;62.77
11017;BME280;54687;50.800;6.772;2022-09-23T04:21:35;61080.34;;;-144.06;62.69
11017;BME280;54687;50.800;6.772;2022-09-23T04:24:04;61059.38;;;-144.06;62.64
11017;BME280;54687;50.800;6.772;2022-09-23T04:26:32;61055.19;;;-144.06;62.67
11017;BME280;54687;50.800;6.772;2022-09-23T04:28:59;61042.59;;;-144.06;62.81
11017;BME280;54687;50.800;6.772;2022-09-23T04:31:26;61042.59;;;-144.06;62.92
11017;BME280;54687;50.800;6.772;2022-09-23T04:33:52;61030.03;;;-144.06;62.93
11017;BME280;54687;50.800;6.772;2022-09-23T04:36:20;61088.72;;;-144.06;62.89
11017;BME280;54687;50.800;6.772;2022-09-23T04:38:47;61067.75;;;-144.06;63.08
11017;BME280;54687;50.800;6.772;2022-09-23T04:41:16;61143.22;;;-144.06;63.13
11017;BME280;54687;50.800;6.772;2022-09-23T04:43:44;61078.25;;;-144.06;62.96
11017;BME280;54687;50.800;6.772;2022-09-23T04:46:13;61097.09;;;-144.06;63.19
11017;BME280;54687;50.800;6.772;2022-09-23T04:48:40;61067.75;;;-144.06;63.62
11017;BME280;54687;50.800;6.772;2022-09-23T04:51:08;61063.56;;;-144.06;63.41
11017;BME280;54687;50.800;6.772;2022-09-23T04:53:37;61055.19;;;-144.06;63.54
11017;BME280;54687;50.800;6.772;2022-09-23T04:56:05;61046.78;;;-144.06;63.45
11017;BME280;54687;50.800;6.772;2022-09-23T04:58:35;61082.44;;;-144.06;63.37
11017;BME280;54687;50.800;6.772;2022-09-23T05:01:07;61025.84;;;-144.06;63.25
11017;BME280;54687;50.800;6.772;2022-09-23T05:03:34;61080.34;;;-144.06;63.39
11017;BME280;54687;50.800;6.772;2022-09-23T05:06:01;61076.13;;;-144.06;63.32
11017;BME280;54687;50.800;6.772;2022-09-23T05:08:27;61071.94;;;-144.06;63.60
11017;BME280;54687;50.800;6.772;2022-09-23T05:10:55;61076.13;;;-144.06;63.53
11017;BME280;54687;50.800;6.772;2022-09-23T05:13:22;61034.22;;;-144.06;63.46
11017;BME280;54687;50.800;6.772;2022-09-23T05:15:56;61063.56;;;-144.06;63.71
11017;BME280;54687;50.800;6.772;2022-09-23T05:18:22;61065.66;;;-144.06;63.52
11017;BME280;54687;50.800;6.772;2022-09-23T05:20:51;61055.19;;;-144.06;64.09
11017;BME280;54687;50.800;6.772;2022-09-23T05:23:18;61023.75;;;-144.06;63.74
11017;BME280;54687;50.800;6.772;2022-09-23T05:25:45;61080.34;;;-144.06;63.90
11017;BME280;54687;50.800;6.772;2022-09-23T05:28:12;61080.34;;;-144.06;63.79
11017;BME280;54687;50.800;6.772;2022-09-23T05:30:39;61051.00;;;-144.06;63.80
11017;BME280;54687;50.800;6.772;2022-09-23T05:33:07;61076.13;;;-144.06;63.79
11017;BME280;54687;50.800;6.772;2022-09-23T05:35:33;61021.63;;;-144.06;63.78
11017;BME280;54687;50.800;6.772;2022-09-23T05:38:00;61038.41;;;-144.06;63.82
11017;BME280;54687;50.800;6.772;2022-09-23T05:40:26;61084.53;;;-144.06;63.69
11017;BME280;54687;50.800;6.772;2022-09-23T05:42:53;61088.72;;;-144.06;63.78
11017;BME280;54687;50.800;6.772;2022-09-23T05:45:20;61046.78;;;-144.06;63.45
11017;BME280;54687;50.800;6.772;2022-09-23T05:47:48;61080.34;;;-144.06;63.43
11017;BME280;54687;50.800;6.772;2022-09-23T05:50:16;61071.94;;;-144.06;63.47
11017;BME280;54687;50.800;6.772;2022-09-23T05:52:43;61071.94;;;-144.06;63.59
11017;BME280;54687;50.800;6.772;2022-09-23T05:55:10;61063.56;;;-144.06;63.40
11017;BME280;54687;50.800;6.772;2022-09-23T05:57:37;61076.13;;;-144.06;63.32
11017;BME280;54687;50.800;6.772;2022-09-23T06:00:04;61107.59;;;-144.06;63.10
11017;BME280;54687;50.800;6.772;2022-09-23T06:02:32;61055.19;;;-144.06;63.06
11017;BME280;54687;50.800;6.772;2022-09-23T06:04:59;61059.38;;;-144.06;63.03
11017;BME280;54687;50.800;6.772;2022-09-23T06:07:27;61076.13;;;-144.06;62.66
11017;BME280;54687;50.800;6.772;2022-09-23T06:09:55;61078.25;;;-144.06;62.71
11017;BME280;54687;50.800;6.772;2022-09-23T06:12:22;61057.28;;;-144.06;62.62
11017;BME280;54687;50.800;6.772;2022-09-23T06:14:49;61071.94;;;-144.06;62.39
11017;BME280;54687;50.800;6.772;2022-09-23T06:17:17;61059.38;;;-144.06;62.37
11017;BME280;54687;50.800;6.772;2022-09-23T06:19:43;61040.50;;;-144.06;62.05
11017;BME280;54687;50.800;6.772;2022-09-23T06:22:10;61078.25;;;-144.06;61.73
11017;BME280;54687;50.800;6.772;2022-09-23T06:24:42;61027.94;;;-144.06;61.57
11017;BME280;54687;50.800;6.772;2022-09-23T06:27:09;61030.03;;;-144.06;61.41
11017;BME280;54687;50.800;6.772;2022-09-23T06:29:35;61076.13;;;-144.06;61.31
11017;BME280;54687;50.800;6.772;2022-09-23T06:32:03;61059.38;;;-144.06;61.29
11017;BME280;54687;50.800;6.772;2022-09-23T06:34:30;61046.78;;;-144.06;60.82
11017;BME280;54687;50.800;6.772;2022-09-23T06:36:56;61059.38;;;-144.06;60.50
11017;BME280;54687;50.800;6.772;2022-09-23T06:39:23;61034.22;;;-144.06;60.48
11017;BME280;54687;50.800;6.772;2022-09-23T06:41:52;61051.00;;;-144.06;60.16
11017;BME280;54687;50.800;6.772;2022-09-23T06:44:19;60996.50;;;-144.06;60.19
11017;BME280;54687;50.800;6.772;2022-09-23T06:46:45;61051.00;;;-144.06;59.95
11017;BME280;54687;50.800;6.772;2022-09-23T06:49:12;61017.44;;;-144.06;59.79
11017;BME280;54687;50.800;6.772;2022-09-23T06:51:39;61057.28;;;-144.06;59.55
11017;BME280;54687;50.800;6.772;2022-09-23T06:54:06;60988.09;;;-144.06;59.21
11017;BME280;54687;50.800;6.772;2022-09-23T06:56:33;61017.44;;;-144.06;58.67
11017;BME280;54687;50.800;6.772;2022-09-23T06:59:01;61021.63;;;-144.06;58.87
11017;BME280;54687;50.800;6.772;2022-09-23T07:01:28;61038.41;;;-144.06;58.39
11017;BME280;54687;50.800;6.772;2022-09-23T07:03:55;61042.59;;;-144.06;58.17
11017;BME280;54687;50.800;6.772;2022-09-23T07:06:21;61042.59;;;-144.06;57.53
11017;BME280;54687;50.800;6.772;2022-09-23T07:08:48;60996.50;;;-144.06;57.33
11017;BME280;54687;50.800;6.772;2022-09-23T07:11:15;61015.34;;;-144.06;56.50
11017;BME280;54687;50.800;6.772;2022-09-23T07:13:46;61000.69;;;-144.06;56.04
11017;BME280;54687;50.800;6.772;2022-09-23T07:16:14;60990.19;;;-144.06;55.54
11017;BME280;54687;50.800;6.772;2022-09-23T07:18:41;61002.78;;;-144.06;55.49
11017;BME280;54687;50.800;6.772;2022-09-23T07:21:10;61023.75;;;-144.06;55.17
11017;BME280;54687;50.800;6.772;2022-09-23T07:23:37;60979.72;;;-144.06;54.36
11017;BME280;54687;50.800;6.772;2022-09-23T07:26:04;60962.94;;;-144.06;53.76
11017;BME280;54687;50.800;6.772;2022-09-23T07:28:32;60979.72;;;-144.06;53.79
11017;BME280;54687;50.800;6.772;2022-09-23T07:31:02;60977.63;;;-144.06;53.80
11017;BME280;54687;50.800;6.772;2022-09-23T07:33:33;60965.03;;;-144.06;53.49
11017;BME280;54687;50.800;6.772;2022-09-23T07:36:03;60983.91;;;-144.06;53.22
11017;BME280;54687;50.800;6.772;2022-09-23T07:38:30;60975.53;;;-144.06;52.75
11017;BME280;54687;50.800;6.772;2022-09-23T07:41:02;60979.72;;;-144.06;52.61
11017;BME280;54687;50.800;6.772;2022-09-23T07:43:29;60983.91;;;-144.06;52.31
11017;BME280;54687;50.800;6.772;2022-09-23T07:45:58;60962.94;;;-144.06;52.09
11017;BME280;54687;50.800;6.772;2022-09-23T07:48:26;60956.66;;;-144.06;51.35
11017;BME280;54687;50.800;6.772;2022-09-23T07:50:55;60958.75;;;-144.06;50.68
11017;BME280;54687;50.800;6.772;2022-09-23T07:53:23;60952.47;;;-144.06;50.42
11017;BME280;54687;50.800;6.772;2022-09-23T07:55:51;60939.88;;;-144.06;49.95
11017;BME280;54687;50.800;6.772;2022-09-23T07:58:18;60931.50;;;-144.06;50.18
11017;BME280;54687;50.800;6.772;2022-09-23T08:00:44;60958.75;;;-144.06;49.73
11017;BME280;54687;50.800;6.772;2022-09-23T08:03:11;60933.59;;;-144.06;49.15
11017;BME280;54687;50.800;6.772;2022-09-23T08:05:39;60941.97;;;-144.06;48.68
11017;BME280;54687;50.800;6.772;2022-09-23T08:08:08;60921.03;;;-144.06;48.50
11017;BME280;54687;50.800;6.772;2022-09-23T08:10:35;60889.59;;;-144.06;48.49
11017;BME280;54687;50.800;6.772;2022-09-23T08:13:02;60908.44;;;-144.06;49.09
11017;BME280;54687;50.800;6.772;2022-09-23T08:15:28;60912.63;;;-144.06;48.37
11017;BME280;54687;50.800;6.772;2022-09-23T08:17:56;60887.47;;;-144.06;48.32
11017;BME280;54687;50.800;6.772;2022-09-23T08:20:24;60933.59;;;-144.06;48.40
11017;BME280;54687;50.800;6.772;2022-09-23T08:23:10;60904.25;;;-144.06;48.12
11017;BME280;54687;50.800;6.772;2022-09-23T08:25:37;60868.63;;;-144.06;48.34
11017;BME280;54687;50.800;6.772;2022-09-23T08:28:04;60889.59;;;-144.06;47.73
11017;BME280;54687;50.800;6.772;2022-09-23T08:30:30;60885.38;;;-144.06;47.61
11017;BME280;54687;50.800;6.772;2022-09-23T08:32:57;60900.06;;;-144.06;47.17
11017;BME280;54687;50.800;6.772;2022-09-23T08:35:24;60904.25;;;-144.06;47.09
11017;BME280;54687;50.800;6.772;2022-09-23T08:37:50;60839.28;;;-144.06;47.14
11017;BME280;54687;50.800;6.772;2022-09-23T08:40:18;60895.88;;;-144.06;47.31
11017;BME280;54687;50.800;6.772;2022-09-23T08:42:45;60851.84;;;-144.06;46.28
11017;BME280;54687;50.800;6.772;2022-09-23T08:45:17;60845.56;;;-144.06;45.94
11017;BME280;54687;50.800;6.772;2022-09-23T08:47:49;60837.19;;;-144.06;46.13
11017;BME280;54687;50.800;6.772;2022-09-23T08:50:20;60864.44;;;-144.06;45.57
11017;BME280;54687;50.800;6.772;2022-09-23T08:52:48;60858.13;;;-144.06;45.67
11017;BME280;54687;50.800;6.772;2022-09-23T08:55:19;60851.84;;;-144.06;45.35
11017;BME280;54687;50.800;6.772;2022-09-23T08:58:00;60826.69;;;-144.06;44.88
11017;BME280;54687;50.800;6.772;2022-09-23T09:00:34;60837.19;;;-144.06;44.96
11017;BME280;54687;50.800;6.772;2022-09-23T09:03:16;60864.44;;;-144.06;44.54
11017;BME280;54687;50.800;6.772;2022-09-23T09:05:43;60853.94;;;-144.06;44.15
11017;BME280;54687;50.800;6.772;2022-09-23T09:08:11;60851.84;;;-144.06;44.52
11017;BME280;54687;50.800;6.772;2022-09-23T09:10:41;60851.84;;;-144.06;42.95
11017;BME280;54687;50.800;6.772;2022-09-23T09:13:21;60845.56;;;-144.06;43.67
11017;BME280;54687;50.800;6.772;2022-09-23T09:16:04;60824.59;;;-144.06;42.73
11017;BME280;54687;50.800;6.772;2022-09-23T09:18:39;60820.41;;;-144.06;43.90
11017;BME280;54687;50.800;6.772;2022-09-23T09:21:11;60812.03;;;-144.06;43.15
11017;BME280;54687;50.800;6.772;2022-09-23T09:23:42;60820.41;;;-144.06;43.48
11017;BME280;54687;50.800;6.772;2022-09-23T09:26:16;60816.22;;;-144.06;42.90
11017;BME280;54687;50.800;6.772;2022-09-23T09:28:48;60805.75;;;-144.06;43.91
11017;BME280;54687;50.800;6.772;2022-09-23T09:31:22;60807.84;;;-144.06;43.24
11017;BME280;54687;50.800;6.772;2022-09-23T09:33:52;60820.41;;;-144.06;42.56
11017;BME280;54687;50.800;6.772;2022-09-23T09:36:28;60812.03;;;-144.06;43.06
11017;BME280;54687;50.800;6.772;2022-09-23T09:39:00;60833.00;;;-144.06;42.58
11017;BME280;54687;50.800;6.772;2022-09-23T09:41:29;60841.38;;;-144.06;42.26
11017;BME280;54687;50.800;6.772;2022-09-23T09:43:56;60853.94;;;-144.06;41.83
11017;BME280;54687;50.800;6.772;2022-09-23T09:46:34;60816.22;;;-144.06;41.40
11017;BME280;54687;50.800;6.772;2022-09-23T09:49:09;60778.50;;;-144.06;41.35
11017;BME280;54687;50.800;6.772;2022-09-23T09:51:37;60786.88;;;-144.06;41.50
11017;BME280;54687;50.800;6.772;2022-09-23T09:54:19;60795.25;;;-144.06;41.33
11017;BME280;54687;50.800;6.772;2022-09-23T09:56:49;60778.50;;;-144.06;42.17
11017;BME280;54687;50.800;6.772;2022-09-23T09:59:18;60793.16;;;-144.06;42.45
11017;BME280;54687;50.800;6.772;2022-09-23T10:02:13;60749.16;;;-144.06;40.72
11017;BME280;54687;50.800;6.772;2022-09-23T10:04:53;60807.84;;;-144.06;41.23
11017;BME280;54687;50.800;6.772;2022-09-23T10:07:25;60770.09;;;-144.06;41.14
11017;BME280;54687;50.800;6.772;2022-09-23T10:09:52;60765.91;;;-144.06;41.19
11017;BME280;54687;50.800;6.772;2022-09-23T10:12:21;60770.09;;;-144.06;40.92
11017;BME280;54687;50.800;6.772;2022-09-23T10:14:50;60791.06;;;-144.06;40.87
11017;BME280;54687;50.800;6.772;2022-09-23T10:17:20;60744.94;;;-144.06;40.55
11017;BME280;54687;50.800;6.772;2022-09-23T10:19:49;60740.75;;;-144.06;39.81
11017;BME280;54687;50.800;6.772;2022-09-23T10:22:20;60784.78;;;-144.06;39.82
11017;BME280;54687;50.800;6.772;2022-09-23T10:24:49;60740.75;;;-144.06;40.08
11017;BME280;54687;50.800;6.772;2022-09-23T10:27:25;60728.19;;;-144.06;39.25
11017;BME280;54687;50.800;6.772;2022-09-23T10:29:55;60774.28;;;-144.06;38.64
11017;BME280;54687;50.800;6.772;2022-09-23T10:32:28;60774.28;;;-144.06;39.53
11017;BME280;54687;50.800;6.772;2022-09-23T10:34:57;60719.81;;;-144.06;39.28
11017;BME280;54687;50.800;6.772;2022-09-23T10:37:31;60734.47;;;-144.06;38.56
11017;BME280;54687;50.800;6.772;2022-09-23T10:39:59;60711.41;;;-144.06;37.71
11017;BME280;54687;50.800;6.772;2022-09-23T10:42:57;60761.72;;;-144.06;37.83
11017;BME280;54687;50.800;6.772;2022-09-23T10:45:47;60755.44;;;-144.06;37.38
11017;BME280;54687;50.800;6.772;2022-09-23T10:48:44;60732.38;;;-144.06;37.63
11017;BME280;54687;50.800;6.772;2022-09-23T10:51:23;60713.50;;;-144.06;38.40
11017;BME280;54687;50.800;6.772;2022-09-23T10:53:57;60778.50;;;-144.06;38.26
11017;BME280;54687;50.800;6.772;2022-09-23T10:56:32;60768.00;;;-144.06;38.24
11017;BME280;54687;50.800;6.772;2022-09-23T10:59:30;60728.19;;;-144.06;37.83
11017;BME280;54687;50.800;6.772;2022-09-23T11:02:14;60765.91;;;-144.06;37.95
11017;BME280;54687;50.800;6.772;2022-09-23T11:05:09;60740.75;;;-144.06;37.65
11017;BME280;54687;50.800;6.772;2022-09-23T11:07:49;60761.72;;;-144.06;38.02
11017;BME280;54687;50.800;6.772;2022-09-23T11:13:36;60736.56;;;-144.06;37.09
11017;BME280;54687;50.800;6.772;2022-09-23T11:16:14;60707.22;;;-144.06;36.63
11017;BME280;54687;50.800;6.772;2022-09-23T11:18:57;60719.81;;;-144.06;36.41
11017;BME280;54687;50.800;6.772;2022-09-23T11:21:45;60677.88;;;-144.06;34.63
11017;BME280;54687;50.800;6.772;2022-09-23T11:24:59;60673.69;;;-144.06;34.66
11017;BME280;54687;50.800;6.772;2022-09-23T11:27:44;60721.91;;;-144.06;34.56
11017;BME280;54687;50.800;6.772;2022-09-23T11:30:17;60713.50;;;-144.06;34.66
11017;BME280;54687;50.800;6.772;2022-09-23T11:32:57;60715.59;;;-144.06;34.22
11017;BME280;54687;50.800;6.772;2022-09-23T11:35:32;60757.53;;;-144.06;34.32
11017;BME280;54687;50.800;6.772;2022-09-23T11:38:04;60694.66;;;-144.06;35.12
11017;BME280;54687;50.800;6.772;2022-09-23T11:40:34;60686.25;;;-144.06;35.22
11017;BME280;54687;50.800;6.772;2022-09-23T11:43:04;60715.59;;;-144.06;34.06
11017;BME280;54687;50.800;6.772;2022-09-23T11:45:35;60684.16;;;-144.06;34.41
11017;BME280;54687;50.800;6.772;2022-09-23T11:48:11;60711.41;;;-144.06;36.74
11017;BME280;54687;50.800;6.772;2022-09-23T11:50:44;60690.47;;;-144.06;37.48
11017;BME280;54687;50.800;6.772;2022-09-23T11:53:17;60669.50;;;-144.06;37.20
11017;BME280;54687;50.800;6.772;2022-09-23T11:55:51;60717.72;;;-144.06;37.50
11017;BME280;54687;50.800;6.772;2022-09-23T11:58:22;60669.50;;;-144.06;37.41
11017;BME280;54687;50.800;6.772;2022-09-23T12:00:55;60707.22;;;-144.06;37.50
11017;BME280;54687;50.800;6.772;2022-09-23T12:03:32;60724.00;;;-144.06;37.81
11017;BME280;54687;50.800;6.772;2022-09-23T12:06:03;60732.38;;;-144.06;38.11
11017;BME280;54687;50.800;6.772;2022-09-23T12:08:33;60711.41;;;-144.06;38.22
11017;BME280;54687;50.800;6.772;2022-09-23T12:11:06;60711.41;;;-144.06;37.65
11017;BME280;54687;50.800;6.772;2022-09-23T12:13:40;60728.19;;;-144.06;37.93
11017;BME280;54687;50.800;6.772;2022-09-23T12:16:34;60719.81;;;-144.06;37.17
11017;BME280;54687;50.800;6.772;2022-09-23T12:19:13;60673.69;;;-144.06;37.30
11017;BME280;54687;50.800;6.772;2022-09-23T12:21:56;60700.94;;;-144.06;37.36
11017;BME280;54687;50.800;6.772;2022-09-23T12:24:36;60730.28;;;-144.06;38.20
11017;BME280;54687;50.800;6.772;2022-09-23T12:27:16;60744.94;;;-144.06;38.06
11017;BME280;54687;50.800;6.772;2022-09-23T12:29:51;60732.38;;;-144.06;37.71
11017;BME280;54687;50.800;6.772;2022-09-23T12:32:19;60707.22;;;-144.06;38.07
11017;BME280;54687;50.800;6.772;2022-09-23T12:34:48;60753.34;;;-144.06;37.87
11017;BME280;54687;50.800;6.772;2022-09-23T12:37:22;60719.81;;;-144.06;37.16
11017;BME280;54687;50.800;6.772;2022-09-23T12:39:50;60675.78;;;-144.06;37.41
11017;BME280;54687;50.800;6.772;2022-09-23T12:42:18;60707.22;;;-144.06;37.18
11017;BME280;54687;50.800;6.772;2022-09-23T12:44:47;60669.50;;;-144.06;37.14
11017;BME280;54687;50.800;6.772;2022-09-23T12:47:36;60686.25;;;-144.06;36.81
11017;BME280;54687;50.800;6.772;2022-09-23T12:56:25;60728.19;;;-144.06;37.43
11017;BME280;54687;50.800;6.772;2022-09-23T12:59:20;60719.81;;;-144.06;37.05
11017;BME280;54687;50.800;6.772;2022-09-23T13:01:49;60740.75;;;-144.06;37.77
11017;BME280;54687;50.800;6.772;2022-09-23T13:04:31;60721.91;;;-144.06;37.96
11017;BME280;54687;50.800;6.772;2022-09-23T13:07:18;60707.22;;;-144.06;38.07
11017;BME280;54687;50.800;6.772;2022-09-23T13:09:50;60736.56;;;-144.06;38.52
11017;BME280;54687;50.800;6.772;2022-09-23T13:12:23;60768.00;;;-144.06;38.24
11017;BME280;54687;50.800;6.772;2022-09-23T13:14:53;60749.16;;;-144.06;38.04